Time,TemperatureF,DewpointF,PressureIn,WindDirection,WindDirectionDegrees,WindSpeedMPH,WindSpeedGustMPH,Humidity,HourlyPrecipIn,Conditions,Clouds,dailyrainin,SoftwareType,DateUTC
2013-05-30 00:12:00,67.0,41.0,29.25,NNW,347,4.0,-999.0,39,0.00,,,0.00,,2013-05-30 07:12:00,
2013-05-30 00:21:00,67.0,41.0,29.25,NNW,347,4.0,-999.0,39,0.00,,,0.00,,2013-05-30 07:21:00,
2013-05-30 00:31:00,67.0,41.0,29.25,NNW,347,4.0,-999.0,39,0.00,,,0.00,,2013-05-30 07:31:00,
2013-05-30 00:42:00,67.0,41.0,29.25,NNW,347,4.0,-999.0,39,0.00,,,0.00,,2013-05-30 07:42:00,
2013-05-30 02:11:00,64.0,45.0,29.27,South,190,2.0,-999.0,51,-99.99,,,-99.99,,2013-05-30 09:11:00,
2013-05-30 02:21:00,64.0,45.0,29.27,South,190,2.0,-999.0,51,-99.99,,,-99.99,,2013-05-30 09:21:00,
2013-05-30 02:32:00,64.0,45.0,29.27,South,190,2.0,-999.0,51,-99.99,,,-99.99,,2013-05-30 09:32:00,
2013-05-30 02:42:00,64.0,45.0,29.27,South,190,2.0,-999.0,51,-99.99,,,-99.99,,2013-05-30 09:42:00,
2013-05-30 03:12:00,62.0,47.0,29.27,WNW,283,0.0,-999.0,58,0.00,,,0.00,,2013-05-30 10:12:00,
2013-05-30 03:22:00,62.0,47.0,29.27,WNW,283,0.0,-999.0,58,0.00,,,0.00,,2013-05-30 10:22:00,
2013-05-30 03:32:00,62.0,47.0,29.27,WNW,283,0.0,-999.0,58,0.00,,,0.00,,2013-05-30 10:32:00,
2013-05-30 03:42:00,62.0,47.0,29.27,WNW,283,0.0,-999.0,58,0.00,,,0.00,,2013-05-30 10:42:00,
2013-05-30 04:12:00,58.0,45.0,29.27,WSW,245,2.0,-999.0,61,0.00,,,-99.99,,2013-05-30 11:12:00,
2013-05-30 04:21:00,58.0,45.0,29.27,WSW,245,2.0,-999.0,61,0.00,,,-99.99,,2013-05-30 11:21:00,
2013-05-30 04:32:00,58.0,45.0,29.27,WSW,245,2.0,-999.0,61,0.00,,,-99.99,,2013-05-30 11:32:00,
2013-05-30 04:42:00,58.0,45.0,29.27,WSW,245,2.0,-999.0,61,0.00,,,-99.99,,2013-05-30 11:42:00,
2013-05-30 05:11:00,57.0,44.0,29.28,SW,221,1.0,-999.0,62,0.00,,,0.00,,2013-05-30 12:11:00,
2013-05-30 05:22:00,57.0,44.0,29.28,SW,221,1.0,-999.0,62,0.00,,,0.00,,2013-05-30 12:22:00,
2013-05-30 05:32:00,57.0,44.0,29.28,SW,221,1.0,-999.0,62,0.00,,,0.00,,2013-05-30 12:32:00,
2013-05-30 05:42:00,57.0,44.0,29.28,SW,221,1.0,-999.0,62,0.00,,,0.00,,2013-05-30 12:42:00,
2013-05-30 06:11:00,57.0,44.0,29.28,West,281,0.0,-999.0,62,0.00,,,-99.99,,2013-05-30 13:11:00,
2013-05-30 06:22:00,57.0,44.0,29.28,West,281,0.0,-999.0,62,0.00,,,-99.99,,2013-05-30 13:22:00,
2013-05-30 06:32:00,57.0,44.0,29.28,West,281,0.0,-999.0,62,0.00,,,-99.99,,2013-05-30 13:32:00,
2013-05-30 06:41:00,57.0,44.0,29.28,West,281,0.0,-999.0,62,0.00,,,-99.99,,2013-05-30 13:41:00,
2013-05-30 07:11:00,58.0,46.0,29.30,NW,312,2.0,-999.0,64,0.00,,,0.00,,2013-05-30 14:11:00,
2013-05-30 07:21:00,58.0,46.0,29.30,NW,312,2.0,-999.0,64,0.00,,,0.00,,2013-05-30 14:21:00,
2013-05-30 07:32:00,58.0,46.0,29.30,NW,312,2.0,-999.0,64,0.00,,,0.00,,2013-05-30 14:32:00,
2013-05-30 07:42:00,58.0,46.0,29.30,NW,312,2.0,-999.0,64,0.00,,,0.00,,2013-05-30 14:42:00,